sensor_id;sensor_type;location;lat;lon;timestamp;pressure;altitude;pressure_sealevel;temperature;humidity
79678;BME280;69145;45.544;10.214;2023-05-10T00:00:21;99741.44;;;19.16;62.85
79678;BME280;69145;45.544;10.214;2023-05-10T00:02:48;99750.13;;;19.16;63.17
79678;BME280;69145;45.544;10.214;2023-05-10T00:05:14;99743.91;;;19.22;62.39
79678;BME280;69145;45.544;10.214;2023-05-10T00:07:39;99744.78;;;19.11;62.74
79678;BME280;69145;45.544;10.214;2023-05-10T00:10:05;99744.88;;;19.16;63.29
79678;BME280;69145;45.544;10.214;2023-05-10T00:12:31;99745.50;;;19.23;63.18
79678;BME280;69145;45.544;10.214;2023-05-10T00:14:56;99751.38;;;19.30;62.92
79678;BME280;69145;45.544;10.214;2023-05-10T00:17:22;99746.19;;;19.35;62.87
79678;BME280;69145;45.544;10.214;2023-05-10T00:19:47;99738.44;;;19.24;63.04
79678;BME280;69145;45.544;10.214;2023-05-10T00:22:13;99753.00;;;19.31;63.15
79678;BME280;69145;45.544;10.214;2023-05-10T00:24:38;99739.63;;;19.33;62.66
79678;BME280;69145;45.544;10.214;2023-05-10T00:27:03;99730.47;;;19.35;62.71
79678;BME280;69145;45.544;10.214;2023-05-10T00:29:29;99734.03;;;19.29;62.34
79678;BME280;69145;45.544;10.214;2023-05-10T00:31:54;99730.41;;;19.30;62.37
79678;BME280;69145;45.544;10.214;2023-05-10T00:34:20;99724.19;;;19.37;62.96
79678;BME280;69145;45.544;10.214;2023-05-10T00:36:45;99711.63;;;19.39;63.09
79678;BME280;69145;45.544;10.214;2023-05-10T00:39:11;99704.16;;;19.30;63.19
79678;BME280;69145;45.544;10.214;2023-05-10T00:41:37;99705.28;;;19.34;63.34
79678;BME280;69145;45.544;10.214;2023-05-10T00:44:02;99701.34;;;19.37;63.58
79678;BME280;69145;45.544;10.214;2023-05-10T00:46:29;99701.91;;;19.39;63.27
79678;BME280;69145;45.544;10.214;2023-05-10T00:48:54;99690.09;;;19.37;63.54
79678;BME280;69145;45.544;10.214;2023-05-10T00:51:20;99696.91;;;19.38;63.75
79678;BME280;69145;45.544;10.214;2023-05-10T00:53:46;99686.59;;;19.31;63.03
79678;BME280;69145;45.544;10.214;2023-05-10T00:56:12;99692.06;;;19.29;63.05
79678;BME280;69145;45.544;10.214;2023-05-10T00:58:39;99689.91;;;19.26;63.42
79678;BME280;69145;45.544;10.214;2023-05-10T01:01:05;99680.47;;;19.25;63.82
79678;BME280;69145;45.544;10.214;2023-05-10T01:03:32;99684.78;;;19.31;63.53
79678;BME280;69145;45.544;10.214;2023-05-10T01:05:57;99681.41;;;19.36;63.65
79678;BME280;69145;45.544;10.214;2023-05-10T01:08:23;99675.53;;;19.29;63.96
79678;BME280;69145;45.544;10.214;2023-05-10T01:10:49;99666.94;;;19.33;64.09
79678;BME280;69145;45.544;10.214;2023-05-10T01:13:23;99664.31;;;19.33;64.23
79678;BME280;69145;45.544;10.214;2023-05-10T01:15:56;99665.38;;;19.32;64.30
79678;BME280;69145;45.544;10.214;2023-05-10T01:18:21;99658.06;;;19.34;64.25
79678;BME280;69145;45.544;10.214;2023-05-10T01:20:48;99664.41;;;19.39;64.32
79678;BME280;69145;45.544;10.214;2023-05-10T01:23:38;99662.81;;;19.38;64.46
79678;BME280;69145;45.544;10.214;2023-05-10T01:26:38;99662.31;;;19.41;64.41
79678;BME280;69145;45.544;10.214;2023-05-10T01:29:14;99670.72;;;19.43;64.63
79678;BME280;69145;45.544;10.214;2023-05-10T01:32:31;99668.34;;;19.41;64.47
79678;BME280;69145;45.544;10.214;2023-05-10T01:35:00;99659.69;;;19.41;64.25
79678;BME280;69145;45.544;10.214;2023-05-10T01:37:41;99664.22;;;19.28;64.44
79678;BME280;69145;45.544;10.214;2023-05-10T01:42:49;99659.31;;;19.32;63.77
79678;BME280;69145;45.544;10.214;2023-05-10T01:45:34;99655.44;;;19.34;63.87
79678;BME280;69145;45.544;10.214;2023-05-10T01:48:11;99655.19;;;19.36;63.88
79678;BME280;69145;45.544;10.214;2023-05-10T01:50:43;99655.94;;;19.31;63.69
79678;BME280;69145;45.544;10.214;2023-05-10T01:53:10;99650.69;;;19.31;64.24
79678;BME280;69145;45.544;10.214;2023-05-10T01:55:45;99656.63;;;19.27;64.44
79678;BME280;69145;45.544;10.214;2023-05-10T01:58:20;99655.28;;;19.24;64.32
79678;BME280;69145;45.544;10.214;2023-05-10T02:00:47;99657.13;;;19.24;64.78
79678;BME280;69145;45.544;10.214;2023-05-10T02:03:15;99654.31;;;19.30;64.62
79678;BME280;69145;45.544;10.214;2023-05-10T02:05:43;99655.59;;;19.28;64.71
79678;BME280;69145;45.544;10.214;2023-05-10T02:08:11;99663.31;;;19.34;64.58
79678;BME280;69145;45.544;10.214;2023-05-10T02:10:37;99667.19;;;19.32;64.53
79678;BME280;69145;45.544;10.214;2023-05-10T02:13:05;99659.78;;;19.29;64.56
79678;BME280;69145;45.544;10.214;2023-05-10T02:15:32;99660.59;;;19.29;64.27
79678;BME280;69145;45.544;10.214;2023-05-10T02:18:00;99660.94;;;19.33;64.35
79678;BME280;69145;45.544;10.214;2023-05-10T02:20:27;99666.94;;;19.33;64.27
79678;BME280;69145;45.544;10.214;2023-05-10T02:22:54;99669.81;;;19.32;64.37
79678;BME280;69145;45.544;10.214;2023-05-10T02:25:21;99678.97;;;19.29;64.55
79678;BME280;69145;45.544;10.214;2023-05-10T02:27:48;99680.69;;;19.02;64.14
79678;BME280;69145;45.544;10.214;2023-05-10T02:30:14;99678.38;;;19.06;64.57
79678;BME280;69145;45.544;10.214;2023-05-10T02:32:41;99678.81;;;19.19;64.49
79678;BME280;69145;45.544;10.214;2023-05-10T02:35:08;99671.56;;;19.26;64.23
79678;BME280;69145;45.544;10.214;2023-05-10T02:37:36;99665.16;;;19.17;64.01
79678;BME280;69145;45.544;10.214;2023-05-10T02:40:02;99676.69;;;19.16;64.66
79678;BME280;69145;45.544;10.214;2023-05-10T02:42:31;99672.59;;;19.25;64.64
79678;BME280;69145;45.544;10.214;2023-05-10T02:45:00;99672.69;;;19.30;63.87
79678;BME280;69145;45.544;10.214;2023-05-10T02:47:27;99674.03;;;19.33;64.44
79678;BME280;69145;45.544;10.214;2023-05-10T02:49:53;99666.19;;;19.33;64.38
79678;BME280;69145;45.544;10.214;2023-05-10T02:52:23;99664.09;;;19.35;64.75
79678;BME280;69145;45.544;10.214;2023-05-10T02:54:52;99663.31;;;19.34;64.43
79678;BME280;69145;45.544;10.214;2023-05-10T02:57:23;99657.75;;;19.31;64.03
79678;BME280;69145;45.544;10.214;2023-05-10T02:59:50;99661.47;;;19.35;64.00
79678;BME280;69145;45.544;10.214;2023-05-10T03:02:15;99648.38;;;19.35;63.94
79678;BME280;69145;45.544;10.214;2023-05-10T03:04:41;99658.59;;;19.37;64.22
79678;BME280;69145;45.544;10.214;2023-05-10T03:07:07;99660.59;;;19.29;64.36
79678;BME280;69145;45.544;10.214;2023-05-10T03:09:33;99658.22;;;19.28;64.31
79678;BME280;69145;45.544;10.214;2023-05-10T03:14:57;99655.19;;;19.36;64.30
79678;BME280;69145;45.544;10.214;2023-05-10T03:17:30;99653.19;;;19.26;64.44
79678;BME280;69145;45.544;10.214;2023-05-10T03:20:06;99653.75;;;19.28;64.82
79678;BME280;69145;45.544;10.214;2023-05-10T03:22:40;99648.84;;;19.32;64.27
79678;BME280;69145;45.544;10.214;2023-05-10T03:25:11;99649.63;;;19.32;64.03
79678;BME280;69145;45.544;10.214;2023-05-10T03:27:40;99648.13;;;19.37;64.53
79678;BME280;69145;45.544;10.214;2023-05-10T03:30:08;99645.50;;;19.37;64.65
79678;BME280;69145;45.544;10.214;2023-05-10T03:32:38;99641.03;;;19.37;64.29
79678;BME280;69145;45.544;10.214;2023-05-10T03:35:11;99644.69;;;19.36;64.34
79678;BME280;69145;45.544;10.214;2023-05-10T03:37:37;99634.19;;;19.36;64.20
79678;BME280;69145;45.544;10.214;2023-05-10T03:40:03;99641.94;;;19.26;64.17
79678;BME280;69145;45.544;10.214;2023-05-10T03:42:28;99638.19;;;19.22;64.74
79678;BME280;69145;45.544;10.214;2023-05-10T03:44:53;99635.38;;;19.28;64.91
79678;BME280;69145;45.544;10.214;2023-05-10T03:47:19;99636.78;;;19.31;64.24
79678;BME280;69145;45.544;10.214;2023-05-10T03:49:44;99631.03;;;19.34;64.41
79678;BME280;69145;45.544;10.214;2023-05-10T03:52:10;99624.22;;;19.33;64.63
79678;BME280;69145;45.544;10.214;2023-05-10T03:54:36;99624.63;;;19.30;64.75
79678;BME280;69145;45.544;10.214;2023-05-10T03:57:01;99621.84;;;19.31;64.80
79678;BME280;69145;45.544;10.214;2023-05-10T03:59:28;99628.16;;;19.35;64.72
79678;BME280;69145;45.544;10.214;2023-05-10T04:01:53;99621.84;;;19.31;65.27
79678;BME280;69145;45.544;10.214;2023-05-10T04:04:19;99625.63;;;19.24;65.29
79678;BME280;69145;45.544;10.214;2023-05-10T04:06:45;99619.88;;;19.27;65.36
79678;BME280;69145;45.544;10.214;2023-05-10T04:09:11;99620.22;;;19.30;65.22
79678;BME280;69145;45.544;10.214;2023-05-10T04:11:36;99613.16;;;19.31;65.67
79678;BME280;69145;45.544;10.214;2023-05-10T04:14:01;99609.75;;;19.30;65.72
79678;BME280;69145;45.544;10.214;2023-05-10T04:16:29;99614.78;;;19.37;65.23
79678;BME280;69145;45.544;10.214;2023-05-10T04:18:55;99606.09;;;19.31;65.77
79678;BME280;69145;45.544;10.214;2023-05-10T04:21:20;99604.78;;;19.34;65.83
79678;BME280;69145;45.544;10.214;2023-05-10T04:23:46;99606.91;;;19.37;66.15
79678;BME280;69145;45.544;10.214;2023-05-10T04:26:12;99605.09;;;19.38;66.11
79678;BME280;69145;45.544;10.214;2023-05-10T04:28:38;99602.47;;;19.38;66.02
79678;BME280;69145;45.544;10.214;2023-05-10T04:31:07;99600.34;;;19.34;65.87
79678;BME280;69145;45.544;10.214;2023-05-10T04:33:32;99600.34;;;19.34;66.10
79678;BME280;69145;45.544;10.214;2023-05-10T04:35:58;99596.38;;;19.32;66.15
79678;BME280;69145;45.544;10.214;2023-05-10T04:38:24;99604.78;;;19.34;66.25
79678;BME280;69145;45.544;10.214;2023-05-10T04:40:50;99610.03;;;19.34;66.38
79678;BME280;69145;45.544;10.214;2023-05-10T04:43:15;99600.09;;;19.36;66.57
79678;BME280;69145;45.544;10.214;2023-05-10T04:45:40;99606.41;;;19.35;66.33
79678;BME280;69145;45.544;10.214;2023-05-10T04:48:05;99594.47;;;19.27;66.58
79678;BME280;69145;45.544;10.214;2023-05-10T04:50:31;99596.47;;;18.99;66.99
79678;BME280;69145;45.544;10.214;2023-05-10T04:52:57;99613.47;;;19.18;66.74
79678;BME280;69145;45.544;10.214;2023-05-10T04:55:22;99609.59;;;19.20;66.83
79678;BME280;69145;45.544;10.214;2023-05-10T04:57:48;99606.47;;;19.23;66.69
79678;BME280;69145;45.544;10.214;2023-05-10T05:00:13;99611.09;;;19.16;66.84
79678;BME280;69145;45.544;10.214;2023-05-10T05:02:44;99598.81;;;19.17;66.66
79678;BME280;69145;45.544;10.214;2023-05-10T05:05:13;99616.72;;;19.03;67.31
79678;BME280;69145;45.544;10.214;2023-05-10T05:07:39;99611.91;;;19.17;67.25
79678;BME280;69145;45.544;10.214;2023-05-10T05:10:06;99614.28;;;19.18;67.26
79678;BME280;69145;45.544;10.214;2023-05-10T05:12:32;99617.41;;;19.15;67.07
79678;BME280;69145;45.544;10.214;2023-05-10T05:14:58;99616.78;;;19.08;67.67
79678;BME280;69145;45.544;10.214;2023-05-10T05:17:23;99623.22;;;19.17;67.57
79678;BME280;69145;45.544;10.214;2023-05-10T05:19:48;99612.63;;;19.12;67.19
79678;BME280;69145;45.544;10.214;2023-05-10T05:22:14;99630.44;;;19.10;67.89
79678;BME280;69145;45.544;10.214;2023-05-10T05:24:39;99624.22;;;19.16;67.55
79678;BME280;69145;45.544;10.214;2023-05-10T05:27:05;99642.09;;;19.19;67.26
79678;BME280;69145;45.544;10.214;2023-05-10T05:29:31;99637.47;;;19.05;68.13
79678;BME280;69145;45.544;10.214;2023-05-10T05:31:56;99647.22;;;19.09;68.32
79678;BME280;69145;45.544;10.214;2023-05-10T05:34:22;99646.16;;;19.10;68.13
79678;BME280;69145;45.544;10.214;2023-05-10T05:36:47;99637.63;;;18.98;68.66
79678;BME280;69145;45.544;10.214;2023-05-10T05:39:13;99640.66;;;18.90;68.62
79678;BME280;69145;45.544;10.214;2023-05-10T05:41:38;99634.88;;;18.88;68.72
79678;BME280;69145;45.544;10.214;2023-05-10T05:44:04;99649.09;;;18.92;68.64
79678;BME280;69145;45.544;10.214;2023-05-10T05:46:29;99647.78;;;18.95;68.79
79678;BME280;69145;45.544;10.214;2023-05-10T05:48:55;99651.97;;;18.91;68.85
79678;BME280;69145;45.544;10.214;2023-05-10T05:51:21;99652.88;;;19.01;68.99
79678;BME280;69145;45.544;10.214;2023-05-10T05:53:46;99661.44;;;19.13;68.76
79678;BME280;69145;45.544;10.214;2023-05-10T05:56:11;99664.63;;;19.15;68.43
79678;BME280;69145;45.544;10.214;2023-05-10T05:58:37;99662.75;;;18.94;68.49
79678;BME280;69145;45.544;10.214;2023-05-10T06:01:02;99667.13;;;18.89;69.05
79678;BME280;69145;45.544;10.214;2023-05-10T06:03:27;99669.50;;;18.90;69.38
79678;BME280;69145;45.544;10.214;2023-05-10T06:05:53;99665.53;;;18.88;68.95
79678;BME280;69145;45.544;10.214;2023-05-10T06:08:18;99666.53;;;19.03;69.06
79678;BME280;69145;45.544;10.214;2023-05-10T06:10:43;99668.75;;;19.11;68.69
79678;BME280;69145;45.544;10.214;2023-05-10T06:13:10;99674.25;;;19.10;68.89
79678;BME280;69145;45.544;10.214;2023-05-10T06:15:35;99680.69;;;18.86;68.95
79678;BME280;69145;45.544;10.214;2023-05-10T06:18:01;99680.38;;;18.82;69.34
79678;BME280;69145;45.544;10.214;2023-05-10T06:20:26;99672.38;;;18.72;69.45
79678;BME280;69145;45.544;10.214;2023-05-10T06:22:52;99688.66;;;18.74;69.74
79678;BME280;69145;45.544;10.214;2023-05-10T06:25:17;99686.91;;;18.80;69.83
79678;BME280;69145;45.544;10.214;2023-05-10T06:27:43;99694.78;;;18.80;69.72
79678;BME280;69145;45.544;10.214;2023-05-10T06:30:09;99688.81;;;18.84;69.70
79678;BME280;69145;45.544;10.214;2023-05-10T06:32:35;99693.50;;;18.82;69.58
79678;BME280;69145;45.544;10.214;2023-05-10T06:35:00;99697.28;;;18.91;69.27
79678;BME280;69145;45.544;10.214;2023-05-10T06:37:26;99687.53;;;18.87;69.22
79678;BME280;69145;45.544;10.214;2023-05-10T06:39:51;99699.03;;;19.02;69.15
79678;BME280;69145;45.544;10.214;2023-05-10T06:42:17;99695.06;;;19.00;69.27
79678;BME280;69145;45.544;10.214;2023-05-10T06:44:42;99694.75;;;18.96;69.05
79678;BME280;69145;45.544;10.214;2023-05-10T06:47:08;99694.53;;;18.81;69.21
79678;BME280;69145;45.544;10.214;2023-05-10T06:49:34;99698.03;;;18.87;69.28
79678;BME280;69145;45.544;10.214;2023-05-10T06:51:59;99706.28;;;18.79;69.02
79678;BME280;69145;45.544;10.214;2023-05-10T06:54:25;99697.47;;;18.85;69.88
79678;BME280;69145;45.544;10.214;2023-05-10T06:56:50;99687.63;;;18.75;69.61
79678;BME280;69145;45.544;10.214;2023-05-10T06:59:15;99698.16;;;18.97;69.22
79678;BME280;69145;45.544;10.214;2023-05-10T07:01:42;99683.63;;;19.06;68.88
79678;BME280;69145;45.544;10.214;2023-05-10T07:04:07;99696.41;;;19.02;68.88
79678;BME280;69145;45.544;10.214;2023-05-10T07:06:33;99704.34;;;19.07;68.95
79678;BME280;69145;45.544;10.214;2023-05-10T07:08:59;99691.16;;;19.02;68.75
79678;BME280;69145;45.544;10.214;2023-05-10T07:11:25;99693.22;;;19.00;68.84
79678;BME280;69145;45.544;10.214;2023-05-10T07:13:51;99693.16;;;19.12;68.86
79678;BME280;69145;45.544;10.214;2023-05-10T07:16:17;99692.91;;;19.13;68.50
79678;BME280;69145;45.544;10.214;2023-05-10T07:18:42;99694.47;;;19.14;68.79
79678;BME280;69145;45.544;10.214;2023-05-10T07:21:07;99700.22;;;19.11;68.68
79678;BME280;69145;45.544;10.214;2023-05-10T07:23:33;99700.41;;;19.05;68.96
79678;BME280;69145;45.544;10.214;2023-05-10T07:25:59;99702.59;;;19.13;68.88
79678;BME280;69145;45.544;10.214;2023-05-10T07:28:24;99701.72;;;19.07;69.01
79678;BME280;69145;45.544;10.214;2023-05-10T07:30:52;99701.72;;;19.07;69.03
79678;BME280;69145;45.544;10.214;2023-05-10T07:33:17;99712.78;;;19.09;68.88
79678;BME280;69145;45.544;10.214;2023-05-10T07:35:43;99711.59;;;19.00;69.15
79678;BME280;69145;45.544;10.214;2023-05-10T07:38:08;99714.22;;;19.00;69.30
79678;BME280;69145;45.544;10.214;2023-05-10T07:40:36;99710.00;;;18.99;69.08
79678;BME280;69145;45.544;10.214;2023-05-10T07:43:04;99704.06;;;18.87;69.42
79678;BME280;69145;45.544;10.214;2023-05-10T07:45:29;99718.81;;;18.93;69.91
79678;BME280;69145;45.544;10.214;2023-05-10T07:47:55;99697.84;;;18.77;69.76
79678;BME280;69145;45.544;10.214;2023-05-10T07:50:20;99706.66;;;19.04;69.51
79678;BME280;69145;45.544;10.214;2023-05-10T07:52:47;99704.03;;;19.04;69.00
79678;BME280;69145;45.544;10.214;2023-05-10T07:55:13;99713.88;;;19.13;69.22
79678;BME280;69145;45.544;10.214;2023-05-10T07:57:38;99709.03;;;19.05;69.11
79678;BME280;69145;45.544;10.214;2023-05-10T08:00:17;99689.19;;;18.93;69.04
79678;BME280;69145;45.544;10.214;2023-05-10T08:02:53;99688.72;;;18.79;69.33
79678;BME280;69145;45.544;10.214;2023-05-10T08:05:18;99700.91;;;18.85;69.60
79678;BME280;69145;45.544;10.214;2023-05-10T08:07:43;99708.66;;;18.97;69.22
79678;BME280;69145;45.544;10.214;2023-05-10T08:10:09;99702.78;;;18.90;69.54
79678;BME280;69145;45.544;10.214;2023-05-10T08:12:36;99722.94;;;18.89;69.74
79678;BME280;69145;45.544;10.214;2023-05-10T08:15:02;99724.38;;;18.97;69.99
79678;BME280;69145;45.544;10.214;2023-05-10T08:17:28;99700.16;;;18.90;69.50
79678;BME280;69145;45.544;10.214;2023-05-10T08:19:53;99720.63;;;19.09;69.57
79678;BME280;69145;45.544;10.214;2023-05-10T08:22:18;99732.94;;;19.09;69.32
79678;BME280;69145;45.544;10.214;2023-05-10T08:24:44;99710.00;;;18.99;69.33
79678;BME280;69145;45.544;10.214;2023-05-10T08:27:09;99714.13;;;18.95;69.50
79678;BME280;69145;45.544;10.214;2023-05-10T08:29:35;99717.25;;;18.92;69.39
79678;BME280;69145;45.544;10.214;2023-05-10T08:32:00;99714.78;;;19.02;69.26
79678;BME280;69145;45.544;10.214;2023-05-10T08:34:28;99721.91;;;19.07;69.30
79678;BME280;69145;45.544;10.214;2023-05-10T08:36:56;99735.50;;;19.20;68.99
79678;BME280;69145;45.544;10.214;2023-05-10T08:39:21;99712.00;;;18.92;68.90
79678;BME280;69145;45.544;10.214;2023-05-10T08:41:48;99722.63;;;19.02;69.55
79678;BME280;69145;45.544;10.214;2023-05-10T08:44:14;99731.13;;;19.09;69.57
79678;BME280;69145;45.544;10.214;2023-05-10T08:46:45;99723.25;;;19.09;69.20
79678;BME280;69145;45.544;10.214;2023-05-10T08:49:13;99730.94;;;19.16;69.39
79678;BME280;69145;45.544;10.214;2023-05-10T08:51:44;99733.34;;;19.17;69.68
79678;BME280;69145;45.544;10.214;2023-05-10T08:54:11;99727.69;;;19.09;69.80
79678;BME280;69145;45.544;10.214;2023-05-10T08:56:37;99734.06;;;19.13;69.66
79678;BME280;69145;45.544;10.214;2023-05-10T08:59:03;99726.13;;;19.08;69.61
79678;BME280;69145;45.544;10.214;2023-05-10T09:01:28;99721.19;;;19.11;69.50
79678;BME280;69145;45.544;10.214;2023-05-10T09:03:56;99732.88;;;19.20;69.31
79678;BME280;69145;45.544;10.214;2023-05-10T09:06:23;99733.38;;;19.01;69.63
79678;BME280;69145;45.544;10.214;2023-05-10T09:08:49;99734.63;;;18.98;69.87
79678;BME280;69145;45.544;10.214;2023-05-10T09:11:15;99720.66;;;18.93;70.46
79678;BME280;69145;45.544;10.214;2023-05-10T09:13:41;99729.13;;;19.00;69.77
79678;BME280;69145;45.544;10.214;2023-05-10T09:16:07;99718.81;;;18.93;69.74
79678;BME280;69145;45.544;10.214;2023-05-10T09:18:33;99730.69;;;18.96;69.53
79678;BME280;69145;45.544;10.214;2023-05-10T09:20:58;99726.75;;;18.98;69.76
79678;BME280;69145;45.544;10.214;2023-05-10T09:23:23;99730.06;;;19.10;69.45
79678;BME280;69145;45.544;10.214;2023-05-10T09:26:06;99743.84;;;19.17;68.95
79678;BME280;69145;45.544;10.214;2023-05-10T09:31:16;99727.56;;;18.99;69.31
79678;BME280;69145;45.544;10.214;2023-05-10T09:33:46;99731.13;;;18.93;69.91
79678;BME280;69145;45.544;10.214;2023-05-10T09:36:12;99725.25;;;19.02;69.58
79678;BME280;69145;45.544;10.214;2023-05-10T09:38:51;99720.56;;;19.04;69.51
79678;BME280;69145;45.544;10.214;2023-05-10T09:43:43;99721.19;;;19.11;69.40
79678;BME280;69145;45.544;10.214;2023-05-10T09:46:09;99716.84;;;19.00;69.62
79678;BME280;69145;45.544;10.214;2023-05-10T09:48:42;99714.03;;;19.07;69.69
79678;BME280;69145;45.544;10.214;2023-05-10T09:51:08;99716.22;;;18.93;69.59
79678;BME280;69145;45.544;10.214;2023-05-10T09:53:33;99708.03;;;18.90;70.01
79678;BME280;69145;45.544;10.214;2023-05-10T09:55:59;99710.63;;;19.06;69.57
79678;BME280;69145;45.544;10.214;2023-05-10T09:58:44;99715.16;;;19.11;69.70
79678;BME280;69145;45.544;10.214;2023-05-10T10:01:12;99716.56;;;19.18;69.34
79678;BME280;69145;45.544;10.214;2023-05-10T10:03:42;99718.50;;;19.06;69.89
79678;BME280;69145;45.544;10.214;2023-05-10T10:06:08;99715.00;;;19.17;69.49
79678;BME280;69145;45.544;10.214;2023-05-10T10:08:34;99718.38;;;19.18;69.54
79678;BME280;69145;45.544;10.214;2023-05-10T10:10:59;99712.78;;;19.09;69.60
79678;BME280;69145;45.544;10.214;2023-05-10T10:13:24;99713.38;;;19.16;69.74
79678;BME280;69145;45.544;10.214;2023-05-10T10:15:51;99710.22;;;19.14;69.35
79678;BME280;69145;45.544;10.214;2023-05-10T10:18:17;99710.78;;;19.16;69.62
79678;BME280;69145;45.544;10.214;2023-05-10T10:20:46;99720.06;;;19.24;69.46
79678;BME280;69145;45.544;10.214;2023-05-10T10:23:11;99713.63;;;19.15;69.69
79678;BME280;69145;45.544;10.214;2023-05-10T10:25:37;99715.56;;;18.86;69.70
79678;BME280;69145;45.544;10.214;2023-05-10T10:28:16;99712.22;;;19.07;69.88
79678;BME280;69145;45.544;10.214;2023-05-10T10:30:48;99708.75;;;18.85;69.98
79678;BME280;69145;45.544;10.214;2023-05-10T10:35:52;99718.28;;;18.91;70.22
79678;BME280;69145;45.544;10.214;2023-05-10T10:38:18;99724.88;;;18.94;70.47
79678;BME280;69145;45.544;10.214;2023-05-10T10:40:43;99718.03;;;18.93;70.18
79678;BME280;69145;45.544;10.214;2023-05-10T10:43:26;99722.16;;;19.05;70.22
79678;BME280;69145;45.544;10.214;2023-05-10T10:46:17;99721.44;;;19.10;69.94
79678;BME280;69145;45.544;10.214;2023-05-10T10:49:11;99715.31;;;19.04;70.05
79678;BME280;69145;45.544;10.214;2023-05-10T10:52:21;99688.81;;;18.84;70.44
79678;BME280;69145;45.544;10.214;2023-05-10T10:57:57;99709.59;;;19.07;70.14
79678;BME280;69145;45.544;10.214;2023-05-10T11:06:38;99701.66;;;19.02;70.60
79678;BME280;69145;45.544;10.214;2023-05-10T11:09:12;99707.03;;;19.12;70.16
79678;BME280;69145;45.544;10.214;2023-05-10T11:11:53;99703.16;;;19.15;69.96
79678;BME280;69145;45.544;10.214;2023-05-10T11:14:23;99703.97;;;18.99;70.01
79678;BME280;69145;45.544;10.214;2023-05-10T11:16:48;99699.34;;;19.06;70.21
79678;BME280;69145;45.544;10.214;2023-05-10T11:19:15;99706.09;;;19.02;70.29
79678;BME280;69145;45.544;10.214;2023-05-10T11:21:51;99704.66;;;19.11;70.28
79678;BME280;69145;45.544;10.214;2023-05-10T11:24:36;99697.34;;;19.13;70.08
79678;BME280;69145;45.544;10.214;2023-05-10T11:27:02;99701.78;;;19.12;69.92
79678;BME280;69145;45.544;10.214;2023-05-10T11:29:29;99696.97;;;19.04;69.96
79678;BME280;69145;45.544;10.214;2023-05-10T11:31:57;99695.69;;;19.07;70.48
79678;BME280;69145;45.544;10.214;2023-05-10T11:34:25;99696.91;;;18.99;70.27
79678;BME280;69145;45.544;10.214;2023-05-10T11:36:52;99697.91;;;18.98;70.52
79678;BME280;69145;45.544;10.214;2023-05-10T11:39:19;99697.41;;;18.80;70.64
79678;BME280;69145;45.544;10.214;2023-05-10T11:41:47;99692.84;;;18.92;70.75
79678;BME280;69145;45.544;10.214;2023-05-10T11:44:13;99687.84;;;18.90;70.66
79678;BME280;69145;45.544;10.214;2023-05-10T11:46:38;99699.28;;;18.84;70.65
79678;BME280;69145;45.544;10.214;2023-05-10T11:49:07;99698.66;;;18.94;70.71
79678;BME280;69145;45.544;10.214;2023-05-10T11:51:36;99694.53;;;18.98;70.59
79678;BME280;69145;45.544;10.214;2023-05-10T11:54:05;99702.28;;;18.93;70.71
79678;BME280;69145;45.544;10.214;2023-05-10T11:56:32;99701.44;;;18.87;70.79
79678;BME280;69145;45.544;10.214;2023-05-10T11:58:58;99697.06;;;18.93;70.68
79678;BME280;69145;45.544;10.214;2023-05-10T12:01:26;99708.34;;;18.93;70.63
79678;BME280;69145;45.544;10.214;2023-05-10T12:03:53;99709.84;;;19.06;70.67
79678;BME280;69145;45.544;10.214;2023-05-10T12:06:19;99702.78;;;19.06;70.33
79678;BME280;69145;45.544;10.214;2023-05-10T12:08:46;99696.22;;;18.87;70.71
79678;BME280;69145;45.544;10.214;2023-05-10T12:11:13;99700.53;;;18.98;70.71
79678;BME280;69145;45.544;10.214;2023-05-10T12:13:43;99708.91;;;18.95;70.90
79678;BME280;69145;45.544;10.214;2023-05-10T12:16:28;99706.22;;;18.90;71.01
79678;BME280;69145;45.544;10.214;2023-05-10T12:18:57;99700.53;;;18.98;70.75
79678;BME280;69145;45.544;10.214;2023-05-10T12:21:23;99704.69;;;18.94;70.68
79678;BME280;69145;45.544;10.214;2023-05-10T12:23:56;99681.81;;;18.90;70.76
79678;BME280;69145;45.544;10.214;2023-05-10T12:26:24;99702.84;;;18.95;70.75
79678;BME280;69145;45.544;10.214;2023-05-10T12:28:53;99692.13;;;18.96;70.62
79678;BME280;69145;45.544;10.214;2023-05-10T12:31:18;99704.34;;;19.07;70.48
79678;BME280;69145;45.544;10.214;2023-05-10T12:33:45;99702.91;;;19.00;70.43
79678;BME280;69145;45.544;10.214;2023-05-10T12:36:13;99710.16;;;19.09;70.26
79678;BME280;69145;45.544;10.214;2023-05-10T12:38:43;99698.41;;;18.95;70.56
79678;BME280;69145;45.544;10.214;2023-05-10T12:41:12;99710.88;;;19.05;70.29
79678;BME280;69145;45.544;10.214;2023-05-10T12:43:39;99701.59;;;18.97;69.87
79678;BME280;69145;45.544;10.214;2023-05-10T12:46:12;99703.91;;;18.94;70.57
79678;BME280;69145;45.544;10.214;2023-05-10T12:48:39;99702.28;;;18.93;70.77
79678;BME280;69145;45.544;10.214;2023-05-10T12:51:06;99711.03;;;18.98;70.20
79678;BME280;69145;45.544;10.214;2023-05-10T12:53:37;99696.75;;;18.89;70.32
79678;BME280;69145;45.544;10.214;2023-05-10T12:56:03;99699.16;;;18.74;70.74
79678;BME280;69145;45.544;10.214;2023-05-10T12:58:29;99705.72;;;18.93;70.59
79678;BME280;69145;45.544;10.214;2023-05-10T13:00:55;99691.66;;;18.83;70.37
79678;BME280;69145;45.544;10.214;2023-05-10T13:03:22;99702.56;;;18.75;70.72
79678;BME280;69145;45.544;10.214;2023-05-10T13:05:47;99703.81;;;18.72;70.91
79678;BME280;69145;45.544;10.214;2023-05-10T13:08:13;99704.25;;;18.64;71.12
79678;BME280;69145;45.544;10.214;2023-05-10T13:10:38;99700.59;;;18.82;70.90
79678;BME280;69145;45.544;10.214;2023-05-10T13:13:04;99713.03;;;18.91;70.68
79678;BME280;69145;45.544;10.214;2023-05-10T13:15:30;99707.78;;;18.91;70.50